Thunder radar more information blitzortung!


Rain radar more information rain snow radar


Visit our other weather sites:

Template documentation
and downloads

And another site



There are no active watches, warnings or advisories

Nearby METAR Reports

   
EHVK - Volkel Rnlafb, Netherlands
Distance from station: SW 11 mi
Updated: Sep 17 2021 9:25 am
Overcast  
Overcast  
   Wind: West 6.9 mph
Wind: West 6.9 mph
Temperature: 69.8°F
Dew Point: 55.4°F
Humidity: 60%
Barometer: 29.97 inHg
Clouds: Overcast
Visibility: More than 6 mi
Cloud details: Overcast 23000 ft
EHVK 171325Z AUTO 26006KT 220V300 9999 OVC230 21/13 Q1015 BLU
EDLV - Niederrhein, Germany
Distance from station: SE 15 mi
Updated: Sep 17 2021 9:20 am
Partly Cloudy  
Partly Cloudy  
   Wind: West 6.9 mph
Wind: West 6.9 mph
Temperature: 71.6°F
Dew Point: 57.2°F
Humidity: 61%
Barometer: 29.97 inHg
Clouds: Partly Cloudy
Visibility: More than 6 mi
Cloud details: Partly Cloudy 3300 ft
EDLV 171320Z 28006KT 230V320 9999 SCT033 22/14 Q1015
EHDL - Deelen Rnlafb, Netherlands
Distance from station: N 22 mi
Updated: Sep 17 2021 9:25 am
Overcast  
Overcast  
   Wind: varies 4.6 mph
Wind: varies 4.6 mph
Temperature: 69.8°F
Dew Point: 59°F
Humidity: 69%
Barometer: 29.97 inHg
Clouds: Overcast
Visibility: More than 6 mi
Cloud details: Few Clouds 3000 ft,
Mostly Cloudy 6300 ft,
Overcast 7000 ft
EHDL 171325Z AUTO VRB04KT 9999 FEW030 BKN063 OVC070 21/15 Q1015 BLU
EHEH - Eindhoven Rnlafb, Netherlands
Distance from station: SW 30 mi
Updated: Sep 17 2021 9:25 am
Few Clouds  
Few Clouds  
   Wind: West 8.1 mph
Wind: West 8.1 mph
Temperature: 71.6°F
Dew Point: 53.6°F
Humidity: 53%
Barometer: 29.97 inHg
Clouds: Few Clouds
Visibility: More than 6 mi
Cloud details: Few Clouds 4700 ft
EHEH 171325Z AUTO 26007KT 210V290 9999 FEW047 22/12 Q1015 BLU NOSIG
EHGR - Gilze-Rijen Rnla, Netherlands
Distance from station: WSW 43 mi
Updated: Sep 17 2021 9:25 am
Overcast  
Overcast  
   Wind: West 9.2 mph
Wind: West 9.2 mph
Temperature: 69.8°F
Dew Point: 55.4°F
Humidity: 60%
Barometer: 29.97 inHg
Clouds: Overcast
Visibility: More than 6 mi
Cloud details: Overcast 34000 ft
EHGR 171325Z AUTO 28008KT 210V320 9999 OVC340 21/13 Q1015 BLU
EBBL - Kleine-Brogel(Ba, Belgium
Distance from station: SSW 44 mi
Updated: Sep 17 2021 9:33 am
Partly Cloudy  
Partly Cloudy  
   Wind: West 5.8 mph
Wind: West 5.8 mph
Temperature: 71.6°F
Dew Point: 55.4°F
Humidity: 57%
Barometer: 29.97 inHg
Clouds: Partly Cloudy
Visibility: More than 6 mi
Cloud details: Partly Cloudy 4000 ft
EBBL 171333Z 26005KT 9999 SCT040 22/13 Q1015 BLU FCST CANCEL

Script developed by  Saratoga-weather.org Adapted for the template by  Weerstation Leuven

You find our weather info also at:

Weather Underground

AWEKAS

Citizen Weather Observer Program (CWOP)

HAMweather, WeatherForYou, PWS Weather

Equipment we use:

Weather-station
Davis VP2

Weather-program
Weather Display

Weather-server
HP ProDesk 600 G1

Provider
1&1 IONOS

Davis VP2

Weather Display

HP ProDesk 600 G1

1&1 IONOS